createdAt,value
2023-09-11T00:00:37.595Z,101556.56
2023-09-11T00:03:05.555Z,101562.81
2023-09-11T00:05:34.613Z,101555.81
2023-09-11T00:08:02.224Z,101570.53
2023-09-11T00:10:31.300Z,101568.38
2023-09-11T00:12:58.893Z,101563.84
2023-09-11T00:15:26.611Z,101545.75
2023-09-11T00:17:54.234Z,101554.13
2023-09-11T00:20:22.524Z,101594.72
2023-09-11T00:22:51.640Z,101587.41
2023-09-11T00:25:19.257Z,101546.59
2023-09-11T00:27:46.979Z,101512.97
2023-09-11T00:30:14.688Z,101483.75
2023-09-11T00:32:42.444Z,101480.50
2023-09-11T00:35:10.255Z,101466.16
2023-09-11T00:37:37.938Z,101459.47
2023-09-11T00:40:08.092Z,101467.38
2023-09-11T00:42:35.821Z,101460.56
2023-09-11T00:45:03.487Z,101474.81
2023-09-11T00:47:31.379Z,101478.25
2023-09-11T00:49:59.908Z,101486.66
2023-09-11T00:52:27.696Z,101474.41
2023-09-11T00:54:56.331Z,101460.97
2023-09-11T00:57:25.603Z,101491.94
2023-09-11T00:59:53.434Z,101507.44
2023-09-11T01:02:21.351Z,101526.47
2023-09-11T01:04:50.837Z,101549.53
2023-09-11T01:07:19.263Z,101540.56
2023-09-11T01:09:47.053Z,101550.06
2023-09-11T01:12:14.779Z,101492.47
2023-09-11T01:14:43.781Z,101548.19
2023-09-11T01:17:14.096Z,101563.50
2023-09-11T01:19:52.553Z,101539.53
2023-09-11T01:22:34.390Z,101511.22
2023-09-11T01:25:16.823Z,101461.28
2023-09-11T01:27:59.064Z,101470.28
2023-09-11T01:30:28.268Z,101518.88
2023-09-11T01:32:56.224Z,101492.34
2023-09-11T01:35:24.167Z,101507.94
2023-09-11T01:37:51.817Z,101504.41
2023-09-11T01:40:21.039Z,101470.75
2023-09-11T01:42:51.289Z,101461.06
2023-09-11T01:45:19.239Z,101468.50
2023-09-11T01:47:49.263Z,101454.13
2023-09-11T01:50:18.134Z,101508.06
2023-09-11T01:52:46.510Z,101483.09
2023-09-11T01:55:14.207Z,101457.75
2023-09-11T01:57:41.871Z,101442.97
2023-09-11T02:00:10.460Z,101461.59
2023-09-11T02:02:38.325Z,101487.47
2023-09-11T02:05:08.283Z,101473.13
2023-09-11T02:07:36.099Z,101463.22
2023-09-11T02:10:03.989Z,101447.97
2023-09-11T02:12:31.917Z,101461.22
2023-09-11T02:14:59.741Z,101466.22
2023-09-11T02:17:27.541Z,101472.09
2023-09-11T02:19:55.228Z,101464.88
2023-09-11T02:22:24.244Z,101436.16
2023-09-11T02:24:51.858Z,101396.44
2023-09-11T02:27:19.535Z,101397.84
2023-09-11T02:29:47.139Z,101455.69
2023-09-11T02:32:14.757Z,101475.16
2023-09-11T02:34:42.396Z,101477.53
2023-09-11T02:37:09.999Z,101478.19
2023-09-11T02:39:40.037Z,101504.34
2023-09-11T02:42:07.676Z,101530.53
2023-09-11T02:44:35.462Z,101521.03
2023-09-11T02:47:03.378Z,101480.28
2023-09-11T02:49:30.993Z,101456.66
2023-09-11T02:51:58.577Z,101460.53
2023-09-11T02:54:26.183Z,101518.16
2023-09-11T02:56:55.279Z,101512.97
2023-09-11T02:59:23.025Z,101494.50
2023-09-11T03:01:50.770Z,101471.97
2023-09-11T03:04:18.387Z,101469.97
2023-09-11T03:06:46.046Z,101452.06
2023-09-11T03:09:14.106Z,101477.28
2023-09-11T03:11:41.855Z,101476.00
2023-09-11T03:14:13.126Z,101512.88
2023-09-11T03:16:40.990Z,101519.56
2023-09-11T03:19:08.598Z,101511.03
2023-09-11T03:21:36.231Z,101510.63
2023-09-11T03:24:04.706Z,101494.06
2023-09-11T03:26:32.634Z,101477.41
2023-09-11T03:29:00.295Z,101432.81
2023-09-11T03:31:29.305Z,101431.53
2023-09-11T03:33:57.009Z,101447.09
2023-09-11T03:36:24.763Z,101453.91
2023-09-11T03:38:52.464Z,101461.44
2023-09-11T03:41:20.435Z,101488.97
2023-09-11T03:43:48.090Z,101487.41
2023-09-11T03:46:16.048Z,101511.06
2023-09-11T03:48:45.843Z,101505.69
2023-09-11T03:51:13.748Z,101474.13
2023-09-11T03:53:44.049Z,101502.94
2023-09-11T03:56:12.391Z,101492.69
2023-09-11T03:58:40.379Z,101489.94
2023-09-11T04:01:08.188Z,101478.97
2023-09-11T04:03:35.959Z,101463.47
2023-09-11T04:06:05.156Z,101473.16
2023-09-11T04:08:32.878Z,101501.41
2023-09-11T04:11:02.110Z,101515.41
2023-09-11T04:13:29.729Z,101498.34
2023-09-11T04:15:57.392Z,101486.88
2023-09-11T04:18:25.184Z,101464.97
2023-09-11T04:20:52.941Z,101483.09
2023-09-11T04:23:22.062Z,101489.66
2023-09-11T04:25:55.396Z,101512.72
2023-09-11T04:28:23.132Z,101518.19
2023-09-11T04:30:50.759Z,101526.78
2023-09-11T04:33:18.708Z,101557.66
2023-09-11T04:35:46.649Z,101534.13
2023-09-11T04:38:14.496Z,101518.59
2023-09-11T04:40:43.454Z,101539.84
2023-09-11T04:43:11.050Z,101524.84
2023-09-11T04:45:39.117Z,101510.63
2023-09-11T04:48:07.267Z,101502.63
2023-09-11T04:50:34.903Z,101518.16
2023-09-11T04:53:03.712Z,101564.66
2023-09-11T04:55:31.825Z,101565.84
2023-09-11T04:58:00.907Z,101559.03
2023-09-11T05:00:28.559Z,101562.66
2023-09-11T05:02:57.233Z,101520.47
2023-09-11T05:05:25.200Z,101468.03
2023-09-11T05:07:52.916Z,101470.88
2023-09-11T05:10:20.542Z,101463.97
2023-09-11T05:12:48.264Z,101445.34
2023-09-11T05:15:17.378Z,101481.19
2023-09-11T05:17:45.089Z,101508.19
2023-09-11T05:20:13.282Z,101521.13
2023-09-11T05:22:41.684Z,101542.38
2023-09-11T05:25:09.786Z,101523.50
2023-09-11T05:27:37.413Z,101518.28
2023-09-11T05:30:05.365Z,101514.66
2023-09-11T05:32:35.087Z,101518.28
2023-09-11T05:35:02.781Z,101519.56
2023-09-11T05:37:30.518Z,101523.94
2023-09-11T05:39:58.252Z,101509.06
2023-09-11T05:42:25.956Z,101479.25
2023-09-11T05:44:53.598Z,101458.03
2023-09-11T05:47:21.703Z,101475.00
2023-09-11T05:49:50.711Z,101444.59
2023-09-11T05:52:18.360Z,101443.25
2023-09-11T05:54:46.087Z,101405.75
2023-09-11T05:57:13.738Z,101403.66
2023-09-11T05:59:41.855Z,101432.53
2023-09-11T06:02:09.638Z,101403.63
2023-09-11T06:04:37.384Z,101384.97
2023-09-11T06:07:06.678Z,101381.59
2023-09-11T06:09:34.802Z,101392.72
2023-09-11T06:12:02.491Z,101392.38
2023-09-11T06:14:30.291Z,101370.81
2023-09-11T06:16:58.063Z,101342.69
2023-09-11T06:19:25.637Z,101351.28
2023-09-11T06:21:53.426Z,101368.31
2023-09-11T06:24:22.655Z,101370.56
2023-09-11T06:27:03.090Z,101322.84
2023-09-11T06:29:30.813Z,101311.75
2023-09-11T06:31:58.621Z,101338.00
2023-09-11T06:34:26.381Z,101325.44
2023-09-11T06:36:54.585Z,101318.41
2023-09-11T06:39:23.595Z,101310.63
2023-09-11T06:41:51.333Z,101315.25
2023-09-11T06:44:18.978Z,101339.44
2023-09-11T06:46:46.591Z,101342.66
2023-09-11T06:49:14.327Z,101337.56
2023-09-11T06:51:43.753Z,101342.69
2023-09-11T06:54:13.595Z,101346.72
2023-09-11T06:56:43.999Z,101328.78
2023-09-11T06:59:11.873Z,101295.78
2023-09-11T07:01:42.187Z,101326.41
2023-09-11T07:04:12.327Z,101331.63
2023-09-11T07:06:40.464Z,101360.50
2023-09-11T07:09:08.644Z,101391.69
2023-09-11T07:11:36.746Z,101384.41
2023-09-11T07:14:06.745Z,101372.50
2023-09-11T07:16:34.675Z,101353.69
2023-09-11T07:19:02.686Z,101302.28
2023-09-11T07:21:30.366Z,101316.28
2023-09-11T07:23:58.058Z,101294.03
2023-09-11T07:26:26.000Z,101251.16
2023-09-11T07:28:57.333Z,101233.06
2023-09-11T07:31:26.751Z,101288.41
2023-09-11T07:33:54.888Z,101299.72
2023-09-11T07:36:22.558Z,101229.00
2023-09-11T07:38:50.317Z,101272.19
2023-09-11T07:41:18.746Z,101288.66
2023-09-11T07:43:50.924Z,101292.50
2023-09-11T07:46:19.052Z,101270.97
2023-09-11T07:48:48.595Z,101321.78
2023-09-11T07:51:16.660Z,101317.81
2023-09-11T07:53:45.678Z,101304.63
2023-09-11T07:56:14.239Z,101259.81
2023-09-11T07:58:42.979Z,101211.56
2023-09-11T08:01:11.073Z,101223.47
2023-09-11T08:03:39.097Z,101195.97
2023-09-11T08:06:08.513Z,101201.75
2023-09-11T08:08:36.390Z,101211.78
2023-09-11T08:11:13.341Z,101204.66
2023-09-11T08:13:41.047Z,101185.72
2023-09-11T08:16:08.867Z,101171.25
2023-09-11T08:18:36.752Z,101145.06
2023-09-11T08:21:04.689Z,101113.81
2023-09-11T08:23:34.116Z,101079.41
2023-09-11T08:26:03.425Z,101041.53
2023-09-11T08:28:31.436Z,101019.00
2023-09-11T08:30:59.387Z,100991.13
2023-09-11T08:33:34.543Z,100981.13
2023-09-11T08:36:09.407Z,100970.81
2023-09-11T08:38:39.052Z,100993.13
2023-09-11T08:41:07.287Z,101007.00
2023-09-11T08:43:35.330Z,100961.19
2023-09-11T08:46:04.357Z,100963.88
2023-09-11T08:48:33.886Z,100968.63
2023-09-11T08:51:03.412Z,100982.94
2023-09-11T08:53:33.450Z,100969.97
2023-09-11T08:56:02.894Z,100968.72
2023-09-11T08:58:31.290Z,100935.28
2023-09-11T09:00:59.446Z,100924.03
2023-09-11T09:03:28.163Z,100920.19
2023-09-11T09:05:56.635Z,100905.47
2023-09-11T09:08:25.090Z,100912.44
2023-09-11T09:10:53.126Z,100867.97
2023-09-11T09:13:22.884Z,100876.19
2023-09-11T09:15:50.940Z,100870.59
2023-09-11T09:18:18.796Z,100874.66
2023-09-11T09:20:46.845Z,100860.34
2023-09-11T09:23:14.720Z,100852.78
2023-09-11T09:25:43.187Z,100834.88
2023-09-11T09:28:10.845Z,100850.56
2023-09-11T09:30:40.163Z,100839.03
2023-09-11T09:33:18.281Z,100821.34
2023-09-11T09:35:46.243Z,100804.75
2023-09-11T09:38:15.237Z,100791.94
2023-09-11T09:40:42.814Z,100798.06
2023-09-11T09:43:16.609Z,100788.75
2023-09-11T09:45:45.839Z,100794.78
2023-09-11T09:48:15.986Z,100783.56
2023-09-11T09:50:54.874Z,100785.88
2023-09-11T09:53:23.893Z,100764.44
2023-09-11T09:55:52.240Z,100777.81
2023-09-11T09:58:20.824Z,100771.84
2023-09-11T10:00:50.399Z,100778.94
2023-09-11T10:03:18.513Z,100756.78
2023-09-11T10:05:50.318Z,100766.31
2023-09-11T10:08:18.163Z,100742.47
2023-09-11T10:10:46.404Z,100844.50
2023-09-11T10:13:17.013Z,101052.94
2023-09-11T10:15:47.196Z,101171.13
2023-09-11T10:18:16.638Z,101203.06
2023-09-11T10:20:46.258Z,101193.81
2023-09-11T10:23:14.542Z,101150.25
2023-09-11T10:25:47.479Z,101244.63
2023-09-11T10:28:20.100Z,101218.28
2023-09-11T10:31:05.359Z,101230.41
2023-09-11T10:33:38.084Z,101210.34
2023-09-11T10:36:07.135Z,101230.16
2023-09-11T10:38:35.868Z,101218.16
2023-09-11T10:41:04.812Z,101214.19
2023-09-11T10:43:33.130Z,101224.63
2023-09-11T10:46:19.052Z,101217.63
2023-09-11T10:48:49.244Z,101212.88
2023-09-11T10:51:17.873Z,101242.66
2023-09-11T10:53:45.845Z,101233.38
2023-09-11T10:56:14.072Z,101240.13
2023-09-11T10:58:44.769Z,101224.03
2023-09-11T11:01:15.814Z,101226.94
2023-09-11T11:03:44.245Z,101210.88
2023-09-11T11:06:19.321Z,101225.94
2023-09-11T11:08:48.465Z,101235.53
2023-09-11T11:11:28.538Z,101234.03
2023-09-11T11:14:12.799Z,101237.19
2023-09-11T11:16:41.114Z,101240.09
2023-09-11T11:19:09.079Z,101237.44
2023-09-11T11:21:44.210Z,101233.03
2023-09-11T11:24:12.716Z,101231.56
2023-09-11T11:26:42.035Z,101234.03
2023-09-11T11:29:10.607Z,101229.50
2023-09-11T11:31:39.653Z,101239.06
2023-09-11T11:34:07.750Z,101223.72
2023-09-11T11:36:39.950Z,101219.34
2023-09-11T11:39:12.123Z,101224.09
2023-09-11T11:41:41.245Z,101235.22
2023-09-11T11:44:09.360Z,101223.25
2023-09-11T11:46:37.919Z,101218.53
2023-09-11T11:49:05.950Z,101219.53
2023-09-11T11:51:37.215Z,101223.88
2023-09-11T11:54:05.885Z,101226.94
2023-09-11T11:56:35.528Z,101221.78
2023-09-11T11:59:04.646Z,101230.22
2023-09-11T12:01:39.116Z,101237.03
2023-09-11T12:04:07.154Z,101231.22
2023-09-11T12:06:35.042Z,101218.38
2023-09-11T12:09:03.223Z,101224.03
2023-09-11T12:11:31.969Z,101214.97
2023-09-11T12:14:02.057Z,101211.22
2023-09-11T12:16:32.323Z,101211.03
2023-09-11T12:19:00.270Z,101201.84
2023-09-11T12:21:28.181Z,101204.75
2023-09-11T12:23:59.204Z,101212.41
2023-09-11T12:26:27.244Z,101208.00
2023-09-11T12:28:55.580Z,101214.16
2023-09-11T12:31:25.805Z,101214.53
2023-09-11T12:33:54.364Z,101216.47
2023-09-11T12:36:22.826Z,101210.28
2023-09-11T12:38:50.967Z,101203.06
2023-09-11T12:41:20.100Z,101203.38
2023-09-11T12:43:48.549Z,101199.97
2023-09-11T12:46:17.635Z,101193.19
2023-09-11T12:48:49.850Z,101211.69
2023-09-11T12:51:18.204Z,101209.03
2023-09-11T12:53:47.168Z,101190.78
2023-09-11T12:56:15.551Z,101178.69
2023-09-11T12:58:46.509Z,101173.28
2023-09-11T13:01:14.408Z,101179.91
2023-09-11T13:03:48.105Z,101164.13
2023-09-11T13:06:16.546Z,101152.03
2023-09-11T13:08:46.307Z,101153.16
2023-09-11T13:11:14.141Z,101160.72
2023-09-11T13:13:42.807Z,101165.72
2023-09-11T13:16:10.691Z,101160.97
2023-09-11T13:18:38.662Z,101153.03
2023-09-11T13:21:08.013Z,101155.75
2023-09-11T13:23:36.267Z,101151.56
2023-09-11T13:26:04.241Z,101147.50
2023-09-11T13:28:32.139Z,101145.53
2023-09-11T13:31:01.444Z,101144.50
2023-09-11T13:33:29.877Z,101145.91
2023-09-11T13:35:57.889Z,101144.47
2023-09-11T13:38:27.305Z,101128.44
2023-09-11T13:40:55.231Z,101131.59
2023-09-11T13:43:23.334Z,101134.88
2023-09-11T13:45:51.120Z,101120.97
2023-09-11T13:48:19.049Z,101121.00
2023-09-11T13:50:47.032Z,101126.41
2023-09-11T13:53:15.672Z,101122.84
2023-09-11T13:55:45.098Z,101112.66
2023-09-11T13:58:13.074Z,101119.81
2023-09-11T14:00:41.455Z,101121.22
2023-09-11T14:03:09.692Z,101125.75
2023-09-11T14:05:45.937Z,101124.69
2023-09-11T14:08:15.144Z,101116.31
2023-09-11T14:10:44.910Z,101120.38
2023-09-11T14:13:12.801Z,101120.53
2023-09-11T14:15:40.598Z,101107.94
2023-09-11T14:18:09.189Z,101115.81
2023-09-11T14:20:37.485Z,101114.22
2023-09-11T14:23:06.008Z,101111.13
2023-09-11T14:25:33.919Z,101107.81
2023-09-11T14:28:04.601Z,101108.97
2023-09-11T14:30:32.388Z,101116.13
2023-09-11T14:33:00.814Z,101102.44
2023-09-11T14:35:28.614Z,101110.09
2023-09-11T14:37:56.818Z,101095.09
2023-09-11T14:40:24.761Z,101102.69
2023-09-11T14:42:52.666Z,101094.78
2023-09-11T14:45:22.099Z,101094.41
2023-09-11T14:47:50.052Z,101096.66
2023-09-11T14:50:18.079Z,101084.41
2023-09-11T14:52:45.767Z,101075.59
2023-09-11T14:55:13.655Z,101058.66
2023-09-11T14:57:41.690Z,101060.00
2023-09-11T15:00:10.616Z,101073.84
2023-09-11T15:02:40.877Z,101072.38
2023-09-11T15:05:09.893Z,101079.47
2023-09-11T15:07:39.739Z,101077.00
2023-09-11T15:10:07.805Z,101066.59
2023-09-11T15:12:37.698Z,101071.69
2023-09-11T15:15:05.919Z,101068.03
2023-09-11T15:17:33.802Z,101063.22
2023-09-11T15:20:06.075Z,101068.50
2023-09-11T15:22:35.437Z,101063.66
2023-09-11T15:25:04.365Z,101057.00
2023-09-11T15:27:32.211Z,101060.41
2023-09-11T15:30:00.353Z,101069.13
2023-09-11T15:32:29.239Z,101058.94
2023-09-11T15:34:57.282Z,101061.66
2023-09-11T15:37:27.076Z,101053.53
2023-09-11T16:46:04.950Z,100837.00
2023-09-11T17:05:32.950Z,100624.59
2023-09-11T17:49:20.373Z,100562.19
2023-09-11T17:59:18.810Z,100539.41
2023-09-11T18:01:46.544Z,100559.59
2023-09-11T18:04:16.149Z,100554.47
2023-09-11T18:06:44.069Z,100558.94
2023-09-11T18:09:12.885Z,100560.50
2023-09-11T18:11:40.811Z,100553.75
2023-09-11T18:14:08.558Z,100560.34
2023-09-11T18:16:36.373Z,100551.66
2023-09-11T18:19:04.375Z,100551.34
2023-09-11T18:21:34.163Z,100563.38
2023-09-11T18:24:02.042Z,100558.59
2023-09-11T18:26:30.144Z,100556.59
2023-09-11T18:29:16.104Z,100551.28
2023-09-11T18:31:51.098Z,100556.31
2023-09-11T18:37:59.214Z,100563.09
2023-09-11T18:40:30.189Z,100550.25
2023-09-11T18:43:07.711Z,100548.63
2023-09-11T18:45:40.050Z,100558.56
2023-09-11T18:48:09.831Z,100559.53
2023-09-11T18:50:45.336Z,100558.47
2023-09-11T18:53:36.272Z,100552.94
2023-09-11T18:56:09.113Z,100555.75
2023-09-11T18:58:50.805Z,100542.34
2023-09-11T19:01:23.875Z,100549.81
2023-09-11T19:04:15.790Z,100549.81
2023-09-11T19:06:48.532Z,100543.28
2023-09-11T19:09:36.554Z,100549.91
2023-09-11T19:12:06.313Z,100544.94
2023-09-11T19:14:35.961Z,100548.31
2023-09-11T19:17:05.816Z,100558.47
2023-09-11T19:19:36.228Z,100557.69
2023-09-11T19:22:07.201Z,100556.59
2023-09-11T19:24:36.248Z,100561.59
2023-09-11T19:27:03.930Z,100573.50
2023-09-11T19:29:31.567Z,100559.06
2023-09-11T19:31:59.244Z,100573.25
2023-09-11T19:34:27.246Z,100596.56
2023-09-11T19:36:54.966Z,100572.72
2023-09-11T19:39:22.670Z,100567.88
2023-09-11T19:41:51.878Z,100564.31
2023-09-11T19:44:20.127Z,100565.06
2023-09-11T19:46:48.824Z,100583.25
2023-09-11T19:49:16.483Z,100583.50
2023-09-11T19:51:44.265Z,100584.56
2023-09-11T19:54:17.276Z,100589.16
2023-09-11T19:56:45.193Z,100620.88
2023-09-11T19:59:14.370Z,100642.06
2023-09-11T20:01:42.163Z,100638.00
2023-09-11T20:04:09.934Z,100622.25
2023-09-11T20:06:39.660Z,100614.94
2023-09-11T20:09:07.596Z,100630.03
2023-09-11T20:11:35.246Z,100626.13
2023-09-11T20:14:02.925Z,100605.25
2023-09-11T20:16:34.458Z,100588.34
2023-09-11T20:19:03.114Z,100628.28
2023-09-11T20:21:31.147Z,100649.28
2023-09-11T20:23:58.994Z,100641.63
2023-09-11T20:26:27.050Z,100649.22
2023-09-11T20:28:54.656Z,100630.06
2023-09-11T20:31:22.281Z,100637.88
2023-09-11T20:33:51.277Z,100649.75
2023-09-11T20:36:19.815Z,100617.41
2023-09-11T20:38:50.557Z,100616.91
2023-09-11T20:41:18.210Z,100629.47
2023-09-11T20:43:47.377Z,100622.28
2023-09-11T20:46:15.280Z,100613.50
2023-09-11T20:48:43.369Z,100615.81
2023-09-11T20:51:15.232Z,100632.88
2023-09-11T20:53:42.812Z,100616.19
2023-09-11T20:56:10.520Z,100603.72
2023-09-11T20:58:38.074Z,100631.22
2023-09-11T21:01:06.032Z,100654.38
2023-09-11T21:03:34.104Z,100645.59
2023-09-11T21:06:02.018Z,100641.56
2023-09-11T21:08:31.150Z,100629.13
2023-09-11T21:10:58.861Z,100613.81
2023-09-11T21:13:27.682Z,100667.03
2023-09-11T21:15:55.281Z,100697.75
2023-09-11T21:18:22.963Z,100688.41
2023-09-11T21:20:50.593Z,100674.75
2023-09-11T21:23:18.182Z,100698.63
2023-09-11T21:25:47.190Z,100677.13
2023-09-11T21:28:14.797Z,100649.47
2023-09-11T21:30:42.472Z,100663.69
2023-09-11T21:33:10.282Z,100657.03
2023-09-11T21:35:37.922Z,100659.47
2023-09-11T21:38:05.485Z,100650.47
2023-09-11T21:40:33.608Z,100617.94
2023-09-11T21:43:02.542Z,100596.53
2023-09-11T21:45:30.103Z,100598.19
2023-09-11T21:48:01.028Z,100626.50
2023-09-11T21:50:29.201Z,100680.88
2023-09-11T21:52:56.750Z,100694.63
2023-09-11T21:55:24.370Z,100707.69
2023-09-11T21:57:51.975Z,100701.75
2023-09-11T22:00:21.078Z,100717.91
2023-09-11T22:02:49.132Z,100752.69
2023-09-11T22:05:16.958Z,100761.00
2023-09-11T22:07:44.521Z,100789.94
2023-09-11T22:10:12.498Z,100783.28
2023-09-11T22:12:40.203Z,100763.34
2023-09-11T22:15:08.396Z,100733.41
2023-09-11T22:17:37.427Z,100726.34
2023-09-11T22:20:05.666Z,100739.69
2023-09-11T22:22:33.270Z,100745.78
2023-09-11T22:25:00.835Z,100737.09
2023-09-11T22:27:28.527Z,100762.00
2023-09-11T22:29:56.327Z,100741.66
2023-09-11T22:32:23.992Z,100760.63
2023-09-11T22:34:53.008Z,100723.88
2023-09-11T22:37:20.587Z,100770.78
2023-09-11T22:39:48.177Z,100779.41
2023-09-11T22:42:15.820Z,100773.16
2023-09-11T22:44:43.456Z,100769.91
2023-09-11T22:47:12.460Z,100814.97
2023-09-11T22:49:40.042Z,100848.91
2023-09-11T22:52:08.981Z,100863.75
2023-09-11T22:54:36.565Z,100902.69
2023-09-11T22:57:04.505Z,100928.81
2023-09-11T22:59:33.404Z,100925.69
2023-09-11T23:02:01.011Z,100955.16
2023-09-11T23:04:28.855Z,100954.41
2023-09-11T23:06:56.534Z,100887.00
2023-09-11T23:09:25.580Z,100878.06
2023-09-11T23:11:53.191Z,100855.16
2023-09-11T23:14:20.863Z,100889.22
2023-09-11T23:16:48.451Z,100927.41
2023-09-11T23:19:16.034Z,100956.03
2023-09-11T23:21:43.610Z,100962.63
2023-09-11T23:24:12.314Z,100943.53
2023-09-11T23:26:41.400Z,100987.78
2023-09-11T23:29:09.137Z,100999.19
2023-09-11T23:31:36.847Z,101027.59
2023-09-11T23:34:04.681Z,101030.06
2023-09-11T23:36:32.343Z,101033.97
2023-09-11T23:39:00.002Z,101033.78
2023-09-11T23:41:28.148Z,101032.56
2023-09-11T23:43:57.120Z,101041.25
2023-09-11T23:46:27.555Z,101029.84
2023-09-11T23:48:55.285Z,101013.03
2023-09-11T23:51:22.947Z,100998.75
2023-09-11T23:53:50.682Z,101002.72
2023-09-11T23:56:18.281Z,100987.09
2023-09-11T23:58:46.001Z,100967.84
